Time;durP1;ratioP1;P1;durP2;ratioP2;P2;SDS_P1;SDS_P2;PMS_P1;PMS_P2;Temp;Humidity;BMP_temperature;BMP_pressure;BME280_temperature;BME280_humidity;BME280_pressure;Samples;Min_cycle;Max_cycle;Signal;HPM_P1;HPM_P2
2022/08/19 05:03:41;;;;;;;26.98;20.73;;;20.40;99.70;;;;;;4903767;29;20124;-73
2022/08/19 05:06:10;;;;;;;25.75;19.88;;;20.50;99.60;;;;;;4893304;29;20036;-75
2022/08/19 05:08:38;;;;;;;28.25;20.63;;;20.50;99.50;;;;;;4909665;29;20039;-75
2022/08/19 05:11:11;;;;;;;27.88;20.13;;;20.50;99.60;;;;;;4910297;29;20060;-75
2022/08/19 05:13:37;;;;;;;28.98;20.80;;;20.50;99.50;;;;;;4909838;29;20035;-76
2022/08/19 05:16:03;;;;;;;29.58;21.05;;;20.60;99.30;;;;;;4893307;29;20072;-74
2022/08/19 05:24:02;;;;;;;26.58;19.48;;;20.60;99.40;;;;;;4909929;29;20098;-74
2022/08/19 05:26:28;;;;;;;24.00;19.13;;;20.50;99.30;;;;;;4909744;29;20060;-74
2022/08/19 05:28:55;;;;;;;27.77;20.38;;;20.60;99.50;;;;;;4909231;29;20036;-74
2022/08/19 05:31:21;;;;;;;26.15;20.00;;;20.60;99.50;;;;;;4909694;29;20029;-74
2022/08/19 05:33:47;;;;;;;25.98;21.02;;;20.70;99.30;;;;;;4908875;29;20234;-74
2022/08/19 05:36:13;;;;;;;28.63;20.25;;;20.60;99.40;;;;;;4909307;29;20048;-75
2022/08/19 05:38:39;;;;;;;25.05;20.58;;;20.70;99.30;;;;;;4909320;29;20040;-75
2022/08/19 05:41:10;;;;;;;26.38;20.48;;;20.60;99.50;;;;;;4928428;29;20058;-75
2022/08/19 05:43:37;;;;;;;24.85;19.98;;;20.60;99.50;;;;;;4927734;29;20322;-75
2022/08/19 05:46:05;;;;;;;25.08;20.58;;;20.50;99.80;;;;;;4903432;29;20039;-75
2022/08/19 05:48:33;;;;;;;25.45;20.38;;;20.60;99.90;;;;;;4890560;29;20060;-75
2022/08/19 05:51:07;;;;;;;25.70;19.45;;;20.60;99.90;;;;;;4873251;29;20040;-75
2022/08/19 05:53:34;;;;;;;26.17;20.52;;;20.70;99.80;;;;;;4890384;29;20103;-75
2022/08/19 05:56:09;;;;;;;26.55;19.88;;;20.60;99.80;;;;;;4890094;29;20040;-75
2022/08/19 05:58:36;;;;;;;27.52;22.05;;;20.70;99.90;;;;;;4900625;29;20040;-75
2022/08/19 06:01:05;;;;;;;26.45;20.80;;;20.60;99.90;;;;;;4904182;29;20080;-74
2022/08/19 06:03:33;;;;;;;27.48;21.65;;;20.60;99.90;;;;;;4891370;29;20076;-75
2022/08/19 06:05:59;;;;;;;26.37;19.20;;;20.70;99.80;;;;;;4909097;29;20144;-75
2022/08/19 06:08:28;;;;;;;27.27;21.25;;;20.70;99.60;;;;;;4909000;29;20333;-74
2022/08/19 06:10:55;;;;;;;25.60;20.38;;;20.80;99.50;;;;;;4908510;29;20036;-75
2022/08/19 06:13:22;;;;;;;26.52;20.25;;;20.70;99.80;;;;;;4908971;29;20103;-74
2022/08/19 06:15:48;;;;;;;26.95;20.17;;;20.70;99.80;;;;;;4908960;29;20354;-75
2022/08/19 06:18:15;;;;;;;24.88;20.80;;;20.70;99.90;;;;;;4904916;29;20040;-76
2022/08/19 06:20:44;;;;;;;25.35;20.05;;;20.70;99.80;;;;;;4889317;29;20041;-76
2022/08/19 06:23:09;;;;;;;;;;;20.80;99.80;;;;;;4890518;29;20033;-75
2022/08/19 06:25:35;;;;;;;27.60;20.60;;;20.70;99.90;;;;;;4890176;29;19983;-75
2022/08/19 06:28:01;;;;;;;27.27;20.65;;;20.80;99.90;;;;;;4889237;29;20035;-74
2022/08/19 06:30:27;;;;;;;26.10;20.05;;;20.80;99.90;;;;;;4889948;29;20037;-76
2022/08/19 06:32:53;;;;;;;28.27;21.63;;;20.70;99.90;;;;;;4889615;29;20207;-75
2022/08/19 06:35:19;;;;;;;25.83;20.42;;;20.70;99.90;;;;;;4889962;29;20029;-75
2022/08/19 06:37:45;;;;;;;25.08;19.90;;;20.60;99.90;;;;;;4891862;29;20029;-74
2022/08/19 06:40:12;;;;;;;28.35;20.83;;;20.60;99.90;;;;;;4908637;29;20055;-77
2022/08/19 06:42:40;;;;;;;27.00;21.42;;;20.60;99.90;;;;;;4908421;29;20032;-78
2022/08/19 06:45:08;;;;;;;29.17;21.88;;;20.60;99.90;;;;;;4891557;29;20104;-75
2022/08/19 06:47:34;;;;;;;26.75;20.67;;;20.50;99.90;;;;;;4908343;29;20029;-75
2022/08/19 06:50:02;;;;;;;27.67;21.77;;;20.50;99.90;;;;;;4907993;29;20060;-76
2022/08/19 06:52:35;;;;;;;;;;;20.50;99.90;;;;;;4908731;29;20214;-76
2022/08/19 06:55:07;;;;;;;26.17;20.65;;;20.50;99.90;;;;;;4897737;29;19915;-76
2022/08/19 06:57:34;;;;;;;27.10;21.42;;;20.50;99.90;;;;;;4895848;29;20028;-76
2022/08/19 07:00:00;;;;;;;28.85;20.90;;;20.40;99.90;;;;;;4907078;29;20029;-76
2022/08/19 07:02:26;;;;;;;28.55;20.60;;;20.50;99.90;;;;;;4911715;29;20135;-77
2022/08/19 07:04:52;;;;;;;25.45;20.48;;;20.60;99.90;;;;;;4906583;29;20044;-76
2022/08/19 07:07:20;;;;;;;25.88;20.00;;;20.60;99.90;;;;;;4907255;29;20310;-76
2022/08/19 07:09:46;;;;;;;26.60;20.77;;;20.60;99.90;;;;;;4907475;29;20028;-76
2022/08/19 07:12:16;;;;;;;29.33;20.75;;;20.70;99.90;;;;;;4889919;29;20035;-76
2022/08/19 07:14:42;;;;;;;24.67;19.90;;;20.70;99.90;;;;;;4889866;29;20031;-77
2022/08/19 07:17:10;;;;;;;25.10;19.75;;;20.70;99.90;;;;;;4874251;29;20195;-76
2022/08/19 07:19:38;;;;;;;24.85;20.90;;;20.70;99.90;;;;;;4906496;29;20029;-77
2022/08/19 07:22:06;;;;;;;27.70;20.48;;;20.70;99.90;;;;;;4905907;29;20259;-74
2022/08/19 07:24:32;;;;;;;26.33;20.08;;;20.70;99.90;;;;;;4906577;29;20369;-74
2022/08/19 07:27:02;;;;;;;24.75;19.73;;;20.70;99.90;;;;;;4900868;29;20040;-75
2022/08/19 07:29:30;;;;;;;26.02;20.27;;;20.70;99.90;;;;;;4886466;29;20025;-75
2022/08/19 07:31:56;;;;;;;26.27;20.83;;;20.70;99.90;;;;;;4886938;29;20414;-74
2022/08/19 07:34:30;;;;;;;26.52;20.45;;;20.70;99.90;;;;;;4891049;29;20051;-75
2022/08/19 07:36:57;;;;;;;23.05;18.98;;;20.70;99.90;;;;;;4905661;29;20033;-74
2022/08/19 07:39:26;;;;;;;26.33;19.33;;;20.70;99.90;;;;;;4886250;29;20200;-74
2022/08/19 07:41:53;;;;;;;24.95;19.63;;;20.60;99.90;;;;;;4886988;29;20032;-74
2022/08/19 07:44:20;;;;;;;24.55;19.05;;;20.60;99.90;;;;;;4887280;29;20247;-74
2022/08/19 07:46:50;;;;;;;27.35;19.60;;;20.70;99.90;;;;;;4886988;29;20263;-74
2022/08/19 07:49:19;;;;;;;23.27;18.52;;;20.60;99.90;;;;;;4887624;29;20104;-75
2022/08/19 07:52:10;;;;;;;23.63;17.60;;;20.70;99.90;;;;;;4887256;29;20060;-75
2022/08/19 07:54:38;;;;;;;21.58;18.00;;;20.60;99.90;;;;;;4884877;29;20041;-76
2022/08/19 07:57:07;;;;;;;22.60;17.98;;;20.60;99.90;;;;;;4889997;29;20048;-75
2022/08/19 07:59:36;;;;;;;24.02;17.55;;;20.70;99.90;;;;;;4906065;29;20033;-75
2022/08/19 08:02:03;;;;;;;24.42;19.63;;;20.70;99.90;;;;;;4905520;29;20094;-76
2022/08/19 08:10:01;;;;;;;28.05;18.75;;;20.60;99.90;;;;;;4902398;29;20039;-77
2022/08/19 08:12:33;;;;;;;27.25;18.38;;;20.50;99.90;;;;;;4907264;29;20064;-77
2022/08/19 08:15:04;;;;;;;26.92;19.80;;;20.40;99.90;;;;;;4906160;29;20032;-76
2022/08/19 08:17:33;;;;;;;23.75;18.08;;;20.30;99.90;;;;;;4908846;29;20044;-76
2022/08/19 08:19:59;;;;;;;26.38;19.15;;;20.20;99.90;;;;;;4915038;29;20024;-76
2022/08/19 08:25:17;;;;;;;30.52;19.35;;;20.20;99.90;;;;;;4912868;29;20037;-77
2022/08/19 08:33:24;;;;;;;23.00;18.60;;;20.20;99.90;;;;;;5893181;23;20014;-71
2022/08/19 08:35:50;;;;;;;23.10;18.52;;;20.30;99.90;;;;;;4959606;29;20027;-72
2022/08/19 08:38:17;;;;;;;23.88;18.65;;;20.30;99.90;;;;;;4961941;29;20122;-72
2022/08/19 08:40:55;;;;;;;28.63;18.90;;;20.30;99.90;;;;;;4962141;29;20031;-71
2022/08/19 08:43:28;;;;;;;24.35;18.35;;;20.40;99.90;;;;;;4962446;28;20051;-72
2022/08/19 08:46:04;;;;;;;26.23;19.00;;;20.40;99.90;;;;;;4962306;28;20039;-72
2022/08/19 08:48:38;;;;;;;23.98;19.38;;;20.30;99.90;;;;;;4962311;28;20039;-71
2022/08/19 08:51:14;;;;;;;24.00;18.83;;;20.40;99.90;;;;;;4962059;29;20421;-72
2022/08/19 08:53:41;;;;;;;25.42;18.67;;;20.60;99.90;;;;;;4962468;28;20035;-71
2022/08/19 08:56:12;;;;;;;25.67;18.77;;;20.70;99.90;;;;;;4961661;29;20400;-70
2022/08/19 08:58:41;;;;;;;23.38;18.27;;;20.90;99.90;;;;;;4962729;28;20043;-71
2022/08/19 09:01:10;;;;;;;22.23;17.80;;;21.20;99.90;;;;;;4959022;28;20328;-72
2022/08/19 09:03:39;;;;;;;20.90;17.60;;;21.40;99.90;;;;;;4962578;29;20039;-73
2022/08/19 09:06:24;;;;;;;19.85;16.08;;;21.50;99.90;;;;;;4961350;29;20063;-73
2022/08/19 09:08:55;;;;;;;22.05;16.90;;;21.60;99.90;;;;;;4961631;29;20035;-72
2022/08/19 09:11:37;;;;;;;23.65;17.80;;;21.60;99.90;;;;;;4945487;29;20046;-70
2022/08/19 09:14:41;;;;;;;20.92;16.77;;;21.70;99.90;;;;;;4960594;29;20031;-73
2022/08/19 09:17:09;;;;;;;19.83;15.77;;;21.90;99.90;;;;;;4957138;28;20039;-74
2022/08/19 09:20:04;;;;;;;21.63;16.13;;;21.90;99.90;;;;;;4948344;29;20365;-71
2022/08/19 09:22:31;;;;;;;22.60;16.98;;;21.90;99.90;;;;;;4965750;29;20059;-71
2022/08/19 09:24:57;;;;;;;19.83;16.42;;;21.90;99.90;;;;;;4965156;29;20031;-72
2022/08/19 09:27:23;;;;;;;21.90;17.20;;;21.70;99.90;;;;;;4965944;29;20058;-72
2022/08/19 09:29:50;;;;;;;26.52;16.35;;;21.70;99.90;;;;;;4964906;29;20027;-74
2022/08/19 09:32:17;;;;;;;19.13;16.63;;;21.60;99.90;;;;;;4965545;29;20055;-73
2022/08/19 09:34:43;;;;;;;20.65;17.13;;;21.60;99.90;;;;;;4947980;29;20047;-72
2022/08/19 09:37:10;;;;;;;21.67;16.00;;;21.60;99.90;;;;;;4964895;29;20242;-72
2022/08/19 09:39:38;;;;;;;20.05;16.15;;;21.60;99.90;;;;;;4965629;29;20339;-72
2022/08/19 09:42:04;;;;;;;20.70;16.27;;;21.60;99.90;;;;;;4965052;29;20046;-73
2022/08/19 09:44:30;;;;;;;21.63;15.68;;;21.60;99.90;;;;;;4965299;29;20039;-72
2022/08/19 09:46:56;;;;;;;19.55;15.55;;;21.70;99.90;;;;;;4964672;29;20070;-72
2022/08/19 09:49:22;;;;;;;20.17;16.33;;;21.70;99.90;;;;;;4965056;29;20027;-71
2022/08/19 09:51:53;;;;;;;18.10;15.23;;;21.80;99.90;;;;;;4963778;29;20030;-74
2022/08/19 09:54:19;;;;;;;17.63;14.18;;;21.90;99.90;;;;;;4964507;29;20047;-73
2022/08/19 09:56:45;;;;;;;18.95;15.00;;;21.90;99.90;;;;;;4965034;29;20031;-71
2022/08/19 09:59:11;;;;;;;18.85;14.55;;;21.90;99.90;;;;;;4964362;29;20246;-71
2022/08/19 10:01:38;;;;;;;15.07;13.05;;;21.90;99.90;;;;;;4965209;29;20023;-72
2022/08/19 10:04:08;;;;;;;18.25;13.68;;;21.80;99.90;;;;;;4964271;29;20305;-73
2022/08/19 10:06:35;;;;;;;15.40;13.45;;;21.90;99.90;;;;;;4964596;29;20090;-73
2022/08/19 10:09:04;;;;;;;15.38;12.98;;;21.90;99.90;;;;;;4964485;29;20300;-72
2022/08/19 10:11:29;;;;;;;;;;;21.90;99.90;;;;;;4965590;29;20042;-73
2022/08/19 10:13:55;;;;;;;16.13;12.98;;;22.00;99.90;;;;;;4964218;29;19910;-72
2022/08/19 10:16:23;;;;;;;17.23;14.38;;;21.90;99.90;;;;;;4964414;29;20325;-74
2022/08/19 10:18:49;;;;;;;17.05;13.18;;;22.00;99.90;;;;;;4964909;29;20031;-72
2022/08/19 10:21:19;;;;;;;16.45;13.40;;;22.10;99.90;;;;;;4964277;29;20023;-75
2022/08/19 10:23:48;;;;;;;15.40;13.27;;;22.10;99.90;;;;;;4963274;29;20102;-73
2022/08/19 10:26:18;;;;;;;15.95;12.40;;;22.10;99.90;;;;;;4963862;29;20075;-72
2022/08/19 10:28:43;;;;;;;16.50;13.20;;;22.20;99.90;;;;;;4964666;28;20035;-72
2022/08/19 10:31:23;;;;;;;17.02;14.07;;;22.20;99.90;;;;;;4964633;29;20033;-77
2022/08/19 10:33:50;;;;;;;18.38;13.88;;;22.20;99.90;;;;;;4964214;29;20055;-75
2022/08/19 10:36:22;;;;;;;16.98;12.80;;;22.20;99.90;;;;;;4946819;29;20086;-72
2022/08/19 10:38:58;;;;;;;18.63;12.85;;;22.30;99.90;;;;;;4964177;29;20035;-72
2022/08/19 10:41:26;;;;;;;17.38;12.93;;;22.40;99.90;;;;;;4963951;29;20039;-70
2022/08/19 10:43:57;;;;;;;15.43;12.40;;;22.60;99.90;;;;;;4964052;29;20038;-73
2022/08/19 10:46:25;;;;;;;17.48;12.07;;;22.60;99.90;;;;;;4947007;29;20313;-71
2022/08/19 10:48:52;;;;;;;14.13;11.52;;;22.80;99.90;;;;;;4947215;29;20027;-71
2022/08/19 10:54:03;;;;;;;13.32;11.27;;;23.10;99.90;;;;;;4963688;29;20035;-70
2022/08/19 10:56:51;;;;;;;12.60;10.75;;;23.30;98.40;;;;;;4963510;29;20031;-72
2022/08/19 10:59:17;;;;;;;14.70;11.07;;;23.30;98.60;;;;;;4963221;29;20051;-72
2022/08/19 11:01:45;;;;;;;13.15;11.07;;;23.20;98.50;;;;;;4963922;29;20024;-70
2022/08/19 11:04:13;;;;;;;14.88;10.40;;;23.20;98.90;;;;;;4963356;29;20107;-71
2022/08/19 11:06:43;;;;;;;15.57;10.18;;;23.20;97.80;;;;;;4943135;29;20032;-72
2022/08/19 11:09:11;;;;;;;13.23;9.13;;;23.10;98.00;;;;;;4943867;29;20078;-71
2022/08/19 11:11:40;;;;;;;11.93;8.85;;;23.00;97.10;;;;;;4944573;29;20055;-71
2022/08/19 11:14:08;;;;;;;14.57;10.30;;;23.00;96.90;;;;;;4944390;29;20023;-70
2022/08/19 11:16:34;;;;;;;9.70;8.30;;;23.00;97.10;;;;;;4927334;29;20206;-70
2022/08/19 11:19:00;;;;;;;11.02;8.88;;;23.00;96.40;;;;;;4944316;29;20039;-72
2022/08/19 11:21:31;;;;;;;11.30;9.02;;;23.10;96.30;;;;;;4944852;29;20024;-72
2022/08/19 11:24:00;;;;;;;12.57;8.45;;;23.20;95.50;;;;;;4949343;28;20292;-74
2022/08/19 11:26:29;;;;;;;10.65;8.85;;;23.30;94.80;;;;;;4947198;29;20411;-71
2022/08/19 11:28:55;;;;;;;10.15;7.65;;;23.40;95.40;;;;;;4962831;29;20007;-70
2022/08/19 11:31:25;;;;;;;12.15;8.77;;;23.50;95.00;;;;;;4959106;29;20048;-71
2022/08/19 11:33:53;;;;;;;12.57;7.97;;;23.60;95.80;;;;;;4927080;29;20055;-71
2022/08/19 11:36:20;;;;;;;11.38;8.98;;;23.70;95.00;;;;;;4955537;29;20090;-72
2022/08/19 11:38:48;;;;;;;16.85;13.93;;;23.70;96.40;;;;;;4962972;29;20075;-71
2022/08/19 11:41:16;;;;;;;14.52;12.10;;;23.70;98.00;;;;;;4944740;29;20062;-70
2022/08/19 11:43:42;;;;;;;16.17;12.73;;;23.80;98.10;;;;;;4945939;29;20073;-71
2022/08/19 11:46:12;;;;;;;18.02;13.50;;;23.70;98.40;;;;;;4962834;29;20027;-70
2022/08/19 11:48:39;;;;;;;16.45;12.55;;;23.70;99.00;;;;;;4930151;29;20035;-70
2022/08/19 11:51:08;;;;;;;19.48;14.50;;;23.60;99.50;;;;;;4929959;29;20027;-70
2022/08/19 11:53:35;;;;;;;23.55;16.30;;;23.50;99.70;;;;;;4962811;29;20031;-70
2022/08/19 11:56:01;;;;;;;25.00;15.60;;;23.40;99.90;;;;;;4929654;29;20087;-70
2022/08/19 11:58:27;;;;;;;24.20;17.10;;;23.20;99.90;;;;;;4962952;29;20035;-70
2022/08/19 12:00:53;;;;;;;19.92;15.98;;;23.20;99.90;;;;;;4945664;29;20061;-70
2022/08/19 12:03:19;;;;;;;23.73;18.08;;;23.20;99.90;;;;;;4962483;29;20046;-70
2022/08/19 12:05:45;;;;;;;22.42;17.48;;;23.20;99.90;;;;;;4945787;29;20031;-70
2022/08/19 12:08:17;;;;;;;22.67;17.70;;;23.00;99.90;;;;;;4962091;29;20309;-72
2022/08/19 12:10:52;;;;;;;23.80;17.95;;;22.90;99.90;;;;;;4931224;29;20026;-71
2022/08/19 12:13:18;;;;;;;25.45;18.10;;;22.70;99.90;;;;;;4943771;29;20344;-70
2022/08/19 12:15:46;;;;;;;21.75;17.85;;;22.70;99.90;;;;;;4962380;29;20221;-70
2022/08/19 12:18:13;;;;;;;22.02;17.17;;;22.70;99.90;;;;;;4945276;29;20111;-69
2022/08/19 12:20:41;;;;;;;22.88;18.25;;;22.60;99.90;;;;;;4945591;29;20023;-72
2022/08/19 12:23:09;;;;;;;23.05;17.77;;;22.50;99.90;;;;;;4962300;29;20031;-71
2022/08/19 12:25:36;;;;;;;25.17;17.50;;;22.50;99.90;;;;;;4942573;29;20082;-70
2022/08/19 12:28:03;;;;;;;23.67;17.40;;;22.40;99.90;;;;;;4953755;29;20441;-70
2022/08/19 12:30:29;;;;;;;20.48;16.63;;;22.30;99.90;;;;;;4950128;29;20036;-71
2022/08/19 12:32:55;;;;;;;23.30;16.85;;;22.30;99.90;;;;;;4943251;29;20111;-71
2022/08/19 12:35:20;;;;;;;22.05;16.48;;;22.30;99.90;;;;;;4959862;29;20069;-71
2022/08/19 12:37:47;;;;;;;16.30;14.20;;;22.20;99.90;;;;;;4962552;29;20023;-69
2022/08/19 12:40:15;;;;;;;20.70;16.52;;;22.20;99.90;;;;;;4944906;29;20075;-70
2022/08/19 12:42:41;;;;;;;18.55;15.48;;;22.20;99.90;;;;;;4955404;29;20038;-70
2022/08/19 12:45:10;;;;;;;21.80;16.08;;;22.20;99.90;;;;;;4962145;29;20218;-71
2022/08/19 12:47:35;;;;;;;20.60;16.30;;;22.20;99.90;;;;;;4960720;29;20047;-70
2022/08/19 12:50:01;;;;;;;20.02;14.95;;;22.30;99.90;;;;;;4961704;29;20043;-69
2022/08/19 12:52:27;;;;;;;19.33;15.43;;;22.20;99.90;;;;;;4961967;28;20039;-70
2022/08/19 12:54:57;;;;;;;19.27;16.65;;;22.40;99.90;;;;;;4966058;29;20086;-71
2022/08/19 12:57:25;;;;;;;19.42;15.38;;;22.60;99.90;;;;;;4965940;29;20042;-69
2022/08/19 12:59:54;;;;;;;19.75;15.70;;;22.80;99.90;;;;;;4957345;29;20301;-70
2022/08/19 13:02:21;;;;;;;19.85;16.83;;;23.10;99.90;;;;;;4946415;29;20058;-71
2022/08/19 13:04:47;;;;;;;18.42;15.40;;;23.20;99.90;;;;;;4947396;29;20099;-71
2022/08/19 13:07:14;;;;;;;18.60;15.00;;;23.40;99.90;;;;;;4955922;29;20031;-71
2022/08/19 13:09:42;;;;;;;18.17;15.55;;;23.40;99.90;;;;;;4967028;28;20285;-70
2022/08/19 13:12:12;;;;;;;19.77;15.55;;;23.30;99.90;;;;;;4966313;29;20245;-70
2022/08/19 13:14:40;;;;;;;23.50;17.70;;;23.20;99.90;;;;;;4956894;29;20098;-69
2022/08/19 13:17:06;;;;;;;24.83;19.42;;;23.00;99.90;;;;;;4934588;29;20058;-70
2022/08/19 13:19:32;;;;;;;25.33;20.13;;;22.70;99.90;;;;;;4962652;29;20063;-71
2022/08/19 13:21:58;;;;;;;27.13;21.20;;;22.60;99.90;;;;;;4965783;29;20019;-71
2022/08/19 13:24:25;;;;;;;24.85;20.08;;;22.30;99.90;;;;;;4964565;29;20042;-70
2022/08/19 13:26:54;;;;;;;26.42;20.98;;;22.30;99.90;;;;;;4949343;29;20050;-70
2022/08/19 13:34:48;;;;;;;29.63;23.17;;;21.80;99.90;;;;;;4963676;29;20035;-70
2022/08/19 13:37:14;;;;;;;30.17;22.42;;;21.70;99.90;;;;;;4946578;29;20078;-72
2022/08/19 13:39:40;;;;;;;31.60;23.88;;;21.60;99.90;;;;;;4929384;29;20016;-71
2022/08/19 13:42:07;;;;;;;33.72;25.00;;;21.50;99.90;;;;;;4945926;29;20046;-71
2022/08/19 13:44:35;;;;;;;29.17;24.38;;;21.50;99.90;;;;;;4958271;29;20031;-71
2022/08/19 13:47:08;;;;;;;;;;;21.50;99.90;;;;;;4914350;29;20380;-71
2022/08/19 13:49:36;;;;;;;34.00;25.65;;;21.40;99.90;;;;;;4947667;29;20242;-72
2022/08/19 13:52:02;;;;;;;33.28;24.05;;;21.40;99.90;;;;;;4960871;29;20278;-71
2022/08/19 13:54:28;;;;;;;32.03;25.00;;;21.40;99.90;;;;;;4947478;29;20313;-71
2022/08/19 13:56:57;;;;;;;33.58;25.40;;;21.20;99.90;;;;;;4964906;29;20055;-69
2022/08/19 13:59:23;;;;;;;29.73;23.23;;;21.10;99.90;;;;;;4964790;29;20043;-71
2022/08/19 14:01:49;;;;;;;25.33;21.17;;;21.20;99.90;;;;;;4965163;29;20034;-70
2022/08/19 14:04:15;;;;;;;27.83;22.27;;;21.30;99.90;;;;;;4964326;28;20031;-71
2022/08/19 14:06:41;;;;;;;28.13;23.05;;;21.30;99.90;;;;;;4965366;29;20063;-71
2022/08/19 14:09:07;;;;;;;35.65;25.80;;;21.40;99.90;;;;;;4964604;29;20027;-70
2022/08/19 14:11:33;;;;;;;30.13;24.63;;;21.40;99.90;;;;;;4947925;29;20083;-72
2022/08/19 14:13:58;;;;;;;33.53;25.60;;;21.40;99.90;;;;;;4964495;29;20099;-70
2022/08/19 14:16:24;;;;;;;29.38;22.58;;;21.30;99.90;;;;;;4964937;29;20039;-71
2022/08/19 14:18:51;;;;;;;25.00;19.50;;;21.20;99.90;;;;;;4964555;29;20030;-71
2022/08/19 14:21:23;;;;;;;23.20;19.65;;;21.40;99.90;;;;;;4963387;29;20069;-70
2022/08/19 14:23:49;;;;;;;22.52;19.60;;;21.50;99.90;;;;;;4964651;29;20059;-73
2022/08/19 14:26:17;;;;;;;22.80;19.27;;;21.70;99.90;;;;;;4964595;29;20042;-71
2022/08/19 14:28:43;;;;;;;;;;;21.70;99.90;;;;;;4965149;29;20233;-72
2022/08/19 14:31:18;;;;;;;23.90;19.00;;;21.80;99.90;;;;;;4964383;29;19948;-71
2022/08/19 14:33:46;;;;;;;25.40;19.40;;;22.00;99.90;;;;;;4964484;29;20073;-70
2022/08/19 14:36:12;;;;;;;25.95;21.08;;;22.10;99.90;;;;;;4963908;29;20030;-71
2022/08/19 14:38:38;;;;;;;23.30;20.10;;;22.20;99.90;;;;;;4964639;29;20111;-72
2022/08/19 14:41:16;;;;;;;21.40;18.50;;;22.30;99.90;;;;;;4964873;29;20042;-70
2022/08/19 14:43:45;;;;;;;20.55;17.50;;;22.60;99.90;;;;;;4965855;29;20035;-71
2022/08/19 14:46:20;;;;;;;20.48;17.25;;;22.70;99.90;;;;;;4965084;29;20050;-73
2022/08/19 14:48:49;;;;;;;18.40;14.88;;;22.90;99.90;;;;;;4965264;29;20019;-72
2022/08/19 14:51:19;;;;;;;22.75;18.70;;;23.10;99.90;;;;;;4965116;29;20037;-71
2022/08/19 14:53:48;;;;;;;20.80;17.63;;;23.20;99.90;;;;;;4965578;29;20090;-72
2022/08/19 14:56:16;;;;;;;20.55;16.88;;;23.20;99.90;;;;;;4965135;29;20034;-72
2022/08/19 14:58:45;;;;;;;20.58;15.95;;;23.10;99.90;;;;;;4965123;29;20216;-71
2022/08/19 15:01:12;;;;;;;20.67;17.25;;;23.10;99.90;;;;;;4946376;29;20031;-72
2022/08/19 15:03:41;;;;;;;18.80;15.13;;;23.00;99.90;;;;;;4964662;29;20027;-72
2022/08/19 15:06:07;;;;;;;18.15;15.80;;;23.00;99.90;;;;;;4964807;29;20093;-71
2022/08/19 15:08:36;;;;;;;19.08;15.77;;;23.00;99.90;;;;;;4964648;29;20037;-73
2022/08/19 15:11:07;;;;;;;17.27;14.02;;;23.20;99.90;;;;;;4965425;29;20042;-72
2022/08/19 15:13:32;;;;;;;16.75;13.40;;;23.40;99.90;;;;;;4964672;29;20031;-72
2022/08/19 15:15:58;;;;;;;17.80;15.82;;;23.80;99.90;;;;;;4946649;29;20193;-72
2022/08/19 15:18:24;;;;;;;19.60;16.45;;;24.20;99.90;;;;;;4964746;29;20038;-72
2022/08/19 15:20:59;;;;;;;20.05;15.68;;;24.70;99.90;;;;;;4962385;29;20034;-73
2022/08/19 15:23:35;;;;;;;17.67;15.77;;;24.90;99.90;;;;;;4950020;29;20032;-72
2022/08/19 15:26:08;;;;;;;19.77;17.20;;;25.10;99.90;;;;;;4927918;29;20035;-72
2022/08/19 15:28:34;;;;;;;19.67;16.42;;;25.00;99.90;;;;;;4926840;29;20020;-72
2022/08/19 15:31:00;;;;;;;21.77;17.63;;;25.00;99.60;;;;;;4927410;29;20035;-74
2022/08/19 15:33:28;;;;;;;21.77;18.00;;;24.60;99.90;;;;;;4943848;29;20061;-75
2022/08/19 15:36:00;;;;;;;20.17;15.70;;;24.20;99.90;;;;;;4943022;29;20059;-74
2022/08/19 15:38:26;;;;;;;21.38;16.88;;;24.30;99.90;;;;;;4939670;29;20100;-75
2022/08/19 15:40:52;;;;;;;19.02;16.33;;;24.20;99.90;;;;;;4963103;29;20272;-70
2022/08/19 15:43:21;;;;;;;19.85;16.17;;;24.30;99.90;;;;;;4962598;29;20035;-77
2022/08/19 15:45:46;;;;;;;;;;;24.40;99.90;;;;;;4963794;29;20104;-74
2022/08/19 15:48:12;;;;;;;17.23;14.73;;;24.70;99.90;;;;;;4962488;29;19989;-74
2022/08/19 15:50:38;;;;;;;16.77;14.45;;;24.90;99.90;;;;;;4962879;29;20034;-73
2022/08/19 15:53:09;;;;;;;15.70;13.75;;;25.20;99.90;;;;;;4963876;29;20346;-77
2022/08/19 15:55:41;;;;;;;15.63;13.98;;;25.60;98.40;;;;;;4962781;29;20141;-77
2022/08/19 16:06:27;;;;;;;17.92;14.82;;;26.00;95.20;;;;;;4962697;29;20046;-75
2022/08/19 16:08:58;;;;;;;18.58;15.05;;;25.80;95.50;;;;;;4962884;29;20039;-75
2022/08/19 16:11:29;;;;;;;18.73;15.30;;;25.80;95.40;;;;;;4945041;29;20034;-73
2022/08/19 16:14:01;;;;;;;17.50;14.73;;;25.50;95.60;;;;;;4929697;29;20039;-73
2022/08/19 16:16:34;;;;;;;17.15;15.23;;;25.00;96.60;;;;;;4961252;29;20031;-74
2022/08/19 16:19:05;;;;;;;17.15;15.40;;;24.90;97.20;;;;;;4942994;29;20043;-72
2022/08/19 16:21:33;;;;;;;17.75;15.27;;;25.50;95.90;;;;;;4961814;29;20126;-71
2022/08/19 16:24:13;;;;;;;17.38;14.25;;;25.80;95.00;;;;;;4962341;29;20244;-72
2022/08/19 16:26:40;;;;;;;19.60;15.95;;;26.10;94.30;;;;;;4944944;28;20031;-72
2022/08/19 16:29:07;;;;;;;16.07;14.33;;;26.20;93.40;;;;;;4968876;29;20034;-69
2022/08/19 16:31:34;;;;;;;17.83;15.02;;;26.00;93.30;;;;;;4968406;29;20053;-69
2022/08/19 16:33:59;;;;;;;16.02;13.80;;;25.70;93.70;;;;;;4968373;28;20031;-70
2022/08/19 16:36:25;;;;;;;15.90;14.23;;;25.60;93.90;;;;;;4968574;29;20042;-72
2022/08/19 16:38:53;;;;;;;18.77;15.55;;;25.50;94.10;;;;;;4968971;29;20150;-71
2022/08/19 16:41:20;;;;;;;18.83;14.93;;;25.30;94.40;;;;;;4968835;28;20050;-72
2022/08/19 16:43:45;;;;;;;19.55;16.30;;;25.00;95.00;;;;;;4969109;29;20465;-70
2022/08/19 16:46:11;;;;;;;19.00;16.05;;;24.30;96.90;;;;;;4968953;29;20042;-71
2022/08/19 16:48:41;;;;;;;18.35;15.70;;;24.00;98.20;;;;;;4968407;29;20082;-70
2022/08/19 16:51:12;;;;;;;18.33;16.02;;;23.80;99.10;;;;;;4967725;28;20035;-71
2022/08/19 16:53:39;;;;;;;19.42;15.80;;;23.40;99.90;;;;;;4968636;29;20026;-71
2022/08/19 16:56:06;;;;;;;22.30;17.93;;;23.10;99.90;;;;;;4968738;29;20031;-71
2022/08/19 16:58:33;;;;;;;21.10;17.67;;;22.90;99.90;;;;;;4968278;28;20074;-70
2022/08/19 17:01:01;;;;;;;23.73;17.38;;;22.70;99.90;;;;;;4968924;29;20086;-70
2022/08/19 17:03:28;;;;;;;;;;;22.70;99.90;;;;;;4968983;28;20030;-71
2022/08/19 17:05:56;;;;;;;19.92;15.93;;;22.80;99.90;;;;;;4969100;29;19914;-69
2022/08/19 17:08:25;;;;;;;20.05;17.25;;;22.90;99.90;;;;;;4968602;29;20027;-71
2022/08/19 17:10:53;;;;;;;20.77;16.38;;;22.80;99.90;;;;;;4968453;29;20317;-70
2022/08/19 17:13:20;;;;;;;;;;;22.70;99.90;;;;;;4968731;29;20031;-70
2022/08/19 17:15:46;;;;;;;19.50;16.63;;;22.60;99.90;;;;;;4951690;29;19918;-70
2022/08/19 17:18:13;;;;;;;18.65;16.10;;;22.50;99.90;;;;;;4951528;29;20049;-69
2022/08/19 17:20:40;;;;;;;19.48;16.75;;;22.30;99.90;;;;;;4947827;29;20098;-70
2022/08/19 17:23:07;;;;;;;20.23;16.85;;;22.10;99.90;;;;;;4948455;29;20238;-72
2022/08/19 17:25:33;;;;;;;22.17;17.00;;;22.00;99.90;;;;;;4948834;29;20062;-69
2022/08/19 17:28:11;;;;;;;22.95;17.65;;;21.90;99.90;;;;;;4961900;29;20225;-71
2022/08/19 17:30:37;;;;;;;22.08;16.80;;;21.80;99.90;;;;;;4968487;29;20279;-72
2022/08/19 17:33:03;;;;;;;19.83;17.25;;;21.70;99.90;;;;;;4951723;29;20034;-71
2022/08/19 17:35:30;;;;;;;20.63;17.35;;;21.70;99.90;;;;;;4967876;29;20102;-71
2022/08/19 17:37:57;;;;;;;25.65;17.70;;;21.60;99.90;;;;;;4968585;28;20103;-72
2022/08/19 17:40:24;;;;;;;19.08;16.92;;;21.60;99.90;;;;;;4947417;29;20043;-72
2022/08/19 17:42:51;;;;;;;21.63;17.40;;;21.60;99.90;;;;;;4932575;29;20082;-70
2022/08/19 17:45:19;;;;;;;21.20;18.17;;;21.50;99.90;;;;;;4965207;29;20031;-70
2022/08/19 17:47:45;;;;;;;23.48;19.10;;;21.50;99.90;;;;;;4948611;29;20055;-72
2022/08/19 17:50:11;;;;;;;22.75;18.58;;;21.40;99.90;;;;;;4965334;29;20027;-69
2022/08/19 17:52:39;;;;;;;19.75;17.13;;;21.40;99.90;;;;;;4964586;29;20042;-70
2022/08/19 17:55:06;;;;;;;22.42;17.65;;;21.40;99.90;;;;;;4965404;29;20066;-70
2022/08/19 17:57:32;;;;;;;22.00;16.85;;;21.40;99.90;;;;;;4964573;29;20081;-70
2022/08/19 17:59:58;;;;;;;19.27;16.65;;;21.40;99.90;;;;;;4965156;29;20067;-70
2022/08/19 18:02:24;;;;;;;23.25;18.73;;;21.40;99.90;;;;;;4946566;29;20243;-72
2022/08/19 18:04:49;;;;;;;22.25;18.02;;;21.30;99.90;;;;;;4965003;29;20043;-71
2022/08/19 18:07:20;;;;;;;21.30;19.00;;;21.20;99.90;;;;;;4965003;29;20051;-71
2022/08/19 18:09:51;;;;;;;23.52;18.45;;;21.20;99.90;;;;;;4965308;29;20059;-71
2022/08/19 18:12:27;;;;;;;22.88;17.60;;;21.20;99.90;;;;;;4965027;29;20094;-72
2022/08/19 18:14:53;;;;;;;20.55;17.65;;;21.20;99.90;;;;;;4965069;29;20051;-70